Time;durP1;ratioP1;P1;durP2;ratioP2;P2;SDS_P1;SDS_P2;PMS_P1;PMS_P2;Temp;Humidity;BMP_temperature;BMP_pressure;BME280_temperature;BME280_humidity;BME280_pressure;Samples;Min_cycle;Max_cycle;Signal;HPM_P1;HPM_P2
2021/06/12 00:02:05;;;;;;;6.97;6.20;;;14.40;99.90;;;;;;4956243;28;20210;-82
2021/06/12 00:04:33;;;;;;;7.27;6.13;;;14.40;99.90;;;;;;4961778;28;20238;-82
2021/06/12 00:06:59;;;;;;;7.53;6.30;;;14.40;99.90;;;;;;4973068;28;20262;-82
2021/06/12 00:09:26;;;;;;;7.67;6.07;;;14.50;99.90;;;;;;4969157;28;20779;-82
2021/06/12 00:11:53;;;;;;;7.93;6.50;;;14.50;99.90;;;;;;4954593;28;20645;-82
2021/06/12 00:14:20;;;;;;;9.23;6.80;;;14.60;99.90;;;;;;4965882;28;20245;-82
2021/06/12 00:16:47;;;;;;;9.03;6.60;;;14.60;99.90;;;;;;4953963;28;20235;-82
2021/06/12 00:19:13;;;;;;;9.27;7.77;;;14.70;99.90;;;;;;4938025;28;20238;-83
2021/06/12 00:21:41;;;;;;;10.40;7.40;;;14.70;99.90;;;;;;4964741;28;20253;-83
2021/06/12 00:24:09;;;;;;;9.13;7.30;;;14.80;99.90;;;;;;4972572;28;20237;-82
2021/06/12 00:26:37;;;;;;;9.90;7.63;;;14.80;99.90;;;;;;4972490;28;20687;-83
2021/06/12 00:29:04;;;;;;;11.03;8.83;;;14.90;99.90;;;;;;4973206;28;20636;-82
2021/06/12 00:31:31;;;;;;;11.10;8.37;;;14.90;99.90;;;;;;4972238;28;20233;-82
2021/06/12 00:33:58;;;;;;;12.07;8.63;;;15.00;99.90;;;;;;4956422;28;20281;-83
2021/06/12 00:36:25;;;;;;;13.37;8.77;;;15.00;99.90;;;;;;4972621;28;20250;-82
2021/06/12 00:38:53;;;;;;;11.60;8.80;;;15.00;99.90;;;;;;4962248;28;20274;-82
2021/06/12 00:41:20;;;;;;;11.00;8.40;;;15.00;99.90;;;;;;4966764;28;20289;-83
2021/06/12 00:43:47;;;;;;;12.40;8.93;;;15.00;99.90;;;;;;4963117;28;20241;-82
2021/06/12 00:46:14;;;;;;;11.77;8.70;;;15.00;99.90;;;;;;4972157;28;20229;-83
2021/06/12 00:48:42;;;;;;;10.27;8.17;;;15.00;99.90;;;;;;4954416;28;20639;-82
2021/06/12 00:51:09;;;;;;;12.50;8.83;;;14.90;99.90;;;;;;4956901;28;20238;-82
2021/06/12 00:53:40;;;;;;;11.77;8.43;;;14.90;99.90;;;;;;4972814;28;20226;-82
2021/06/12 00:56:10;;;;;;;12.80;9.20;;;14.80;99.90;;;;;;4972025;28;20202;-83
2021/06/12 00:58:42;;;;;;;11.20;8.10;;;14.80;99.90;;;;;;4967939;28;20302;-82
2021/06/12 01:01:09;;;;;;;11.93;8.30;;;14.70;99.90;;;;;;4972163;28;20214;-82
2021/06/12 01:03:39;;;;;;;10.87;7.97;;;14.80;99.90;;;;;;4968539;28;20217;-83
2021/06/12 01:06:06;;;;;;;12.50;8.37;;;14.80;99.90;;;;;;4955237;28;20207;-83
2021/06/12 01:08:33;;;;;;;10.30;7.57;;;14.90;99.90;;;;;;4957200;29;20286;-82
2021/06/12 01:10:59;;;;;;;12.47;8.00;;;14.90;99.90;;;;;;4964453;28;20199;-83
2021/06/12 01:13:34;;;;;;;10.87;8.30;;;14.90;99.90;;;;;;4966690;28;20239;-82
2021/06/12 01:16:06;;;;;;;11.73;8.03;;;14.90;99.90;;;;;;4962914;28;20238;-82
2021/06/12 01:18:34;;;;;;;11.13;7.70;;;14.90;99.90;;;;;;4976112;28;20313;-82
2021/06/12 01:21:09;;;;;;;11.07;7.83;;;14.90;99.90;;;;;;4976003;28;20202;-83
2021/06/12 01:24:17;;;;;;;9.87;8.10;;;15.00;99.90;;;;;;4976258;28;20234;-83
2021/06/12 01:27:15;;;;;;;11.73;8.60;;;15.00;99.90;;;;;;4976425;28;20202;-82
2021/06/12 01:30:10;;;;;;;12.67;8.17;;;15.00;99.90;;;;;;4967806;28;20278;-83
2021/06/12 01:32:46;;;;;;;13.20;8.80;;;15.00;99.90;;;;;;4976208;28;20206;-83
2021/06/12 01:35:18;;;;;;;12.20;8.67;;;15.00;99.90;;;;;;4958614;28;20209;-83
2021/06/12 01:37:47;;;;;;;12.07;8.50;;;15.00;99.90;;;;;;4975548;28;20332;-83
2021/06/12 01:40:15;;;;;;;12.27;8.50;;;15.00;99.90;;;;;;4971134;28;20207;-83
2021/06/12 01:42:44;;;;;;;13.53;8.33;;;15.00;99.90;;;;;;4969754;28;20302;-82
2021/06/12 01:45:13;;;;;;;13.30;8.40;;;15.10;99.90;;;;;;4956276;29;20207;-83
2021/06/12 01:47:39;;;;;;;13.03;8.80;;;15.10;99.90;;;;;;4970452;28;20190;-83
2021/06/12 01:50:09;;;;;;;11.33;8.87;;;15.10;99.90;;;;;;4974847;28;20326;-83
2021/06/12 01:52:38;;;;;;;10.93;8.53;;;15.00;99.90;;;;;;4965539;28;20202;-82
2021/06/12 01:55:07;;;;;;;10.50;7.73;;;15.00;99.90;;;;;;4975218;28;20233;-82
2021/06/12 01:57:34;;;;;;;10.10;7.17;;;15.10;99.90;;;;;;4971466;28;20325;-83
2021/06/12 02:00:03;;;;;;;11.23;8.17;;;15.10;99.90;;;;;;4973634;28;20268;-83
2021/06/12 02:02:31;;;;;;;11.50;7.57;;;15.10;99.90;;;;;;4974764;28;20289;-83
2021/06/12 02:04:59;;;;;;;11.63;8.43;;;15.10;99.90;;;;;;4971224;28;20236;-82
2021/06/12 02:07:25;;;;;;;12.27;8.00;;;15.10;99.90;;;;;;4975190;28;20214;-81
2021/06/12 02:09:52;;;;;;;9.87;7.80;;;15.10;99.90;;;;;;4965426;28;20295;-81
2021/06/12 02:12:19;;;;;;;13.30;8.10;;;15.10;99.90;;;;;;4956642;28;20290;-82
2021/06/12 02:14:47;;;;;;;10.70;7.83;;;15.10;99.90;;;;;;4969252;28;20207;-82
2021/06/12 02:17:15;;;;;;;13.83;8.20;;;15.10;99.90;;;;;;4964860;28;20247;-83
2021/06/12 02:19:43;;;;;;;11.83;8.30;;;15.10;99.90;;;;;;4967838;28;20241;-83
2021/06/12 02:22:10;;;;;;;14.77;8.90;;;15.10;99.90;;;;;;4974163;28;20624;-83
2021/06/12 02:24:36;;;;;;;11.33;7.63;;;15.20;99.90;;;;;;4973842;28;20206;-82
2021/06/12 02:27:05;;;;;;;12.67;8.73;;;15.20;99.90;;;;;;4968014;28;20661;-83
2021/06/12 02:29:32;;;;;;;13.43;8.47;;;15.20;99.90;;;;;;4971771;28;20226;-83
2021/06/12 02:32:05;;;;;;;11.97;8.63;;;15.20;99.90;;;;;;4974679;28;20246;-83
2021/06/12 02:34:33;;;;;;;12.23;8.47;;;15.20;99.90;;;;;;4967761;28;20230;-82
2021/06/12 02:37:02;;;;;;;11.97;7.83;;;15.10;99.90;;;;;;4974464;28;20222;-83
2021/06/12 02:39:29;;;;;;;13.50;8.57;;;15.10;99.90;;;;;;4974041;28;20265;-83
2021/06/12 02:41:55;;;;;;;9.90;7.50;;;15.10;99.90;;;;;;4970275;28;20290;-83
2021/06/12 02:44:22;;;;;;;12.87;8.30;;;15.20;99.90;;;;;;4973384;28;20222;-82
2021/06/12 02:46:49;;;;;;;12.87;8.23;;;15.20;99.90;;;;;;4974813;28;20241;-83
2021/06/12 02:49:18;;;;;;;12.27;8.53;;;15.20;99.90;;;;;;4960134;28;20262;-83
2021/06/12 02:51:52;;;;;;;11.10;8.07;;;15.20;99.90;;;;;;4946509;28;20297;-83
2021/06/12 02:54:23;;;;;;;10.70;8.10;;;15.20;99.90;;;;;;4963693;28;20207;-82
2021/06/12 02:56:51;;;;;;;11.27;8.30;;;15.30;99.90;;;;;;4968089;28;20285;-82
2021/06/12 02:59:19;;;;;;;11.43;8.93;;;15.30;99.90;;;;;;4972652;28;20671;-82
2021/06/12 03:01:47;;;;;;;12.50;8.23;;;15.30;99.90;;;;;;4973965;28;20198;-83
2021/06/12 03:04:16;;;;;;;11.60;7.83;;;15.30;99.90;;;;;;4973917;28;20241;-83
2021/06/12 03:06:44;;;;;;;10.83;8.37;;;15.20;99.90;;;;;;4973016;28;20681;-83
2021/06/12 03:09:14;;;;;;;12.43;9.13;;;15.20;99.90;;;;;;4957004;28;20704;-82
2021/06/12 03:11:44;;;;;;;15.60;8.37;;;15.20;99.90;;;;;;4973973;28;20202;-83
2021/06/12 03:14:13;;;;;;;13.27;9.00;;;15.20;99.90;;;;;;4973638;28;20241;-83
2021/06/12 03:16:42;;;;;;;14.00;9.00;;;15.20;99.90;;;;;;4972373;28;20234;-82
2021/06/12 03:19:10;;;;;;;12.93;8.63;;;15.10;99.90;;;;;;4974453;28;20289;-83
2021/06/12 03:21:37;;;;;;;12.20;8.57;;;15.10;99.90;;;;;;4956732;28;20206;-83
2021/06/12 03:24:05;;;;;;;11.53;8.20;;;15.20;99.90;;;;;;4973852;28;20237;-83
2021/06/12 03:26:33;;;;;;;13.00;8.53;;;15.10;99.90;;;;;;4972623;28;20628;-83
2021/06/12 03:29:02;;;;;;;9.73;7.33;;;15.10;99.90;;;;;;4973401;28;20722;-83
2021/06/12 03:31:29;;;;;;;10.57;8.10;;;15.10;99.90;;;;;;4973277;28;20233;-83
2021/06/12 03:33:56;;;;;;;10.33;7.10;;;15.00;99.90;;;;;;4973743;28;20202;-83
2021/06/12 03:36:25;;;;;;;11.20;7.10;;;15.00;99.90;;;;;;4972993;28;20206;-83
2021/06/12 03:38:52;;;;;;;10.20;6.80;;;15.00;99.90;;;;;;4973699;28;20313;-84
2021/06/12 03:41:20;;;;;;;7.77;6.30;;;15.00;99.90;;;;;;4973137;28;20294;-83
2021/06/12 03:43:48;;;;;;;10.10;6.07;;;14.90;99.90;;;;;;4973617;28;20241;-83
2021/06/12 03:46:17;;;;;;;5.67;4.83;;;14.90;99.90;;;;;;4973278;28;20199;-83
2021/06/12 03:48:46;;;;;;;5.83;4.63;;;14.80;99.90;;;;;;4973227;28;20948;-83
2021/06/12 03:51:15;;;;;;;5.07;4.07;;;14.80;99.90;;;;;;4972976;28;20369;-83
2021/06/12 03:53:46;;;;;;;5.10;4.10;;;14.70;99.90;;;;;;4972706;28;20244;-83
2021/06/12 03:56:14;;;;;;;4.53;3.67;;;14.70;99.90;;;;;;4973362;28;20289;-83
2021/06/12 03:58:43;;;;;;;4.80;4.30;;;14.60;99.90;;;;;;4973093;28;20785;-83
2021/06/12 04:01:12;;;;;;;4.40;3.80;;;14.70;99.90;;;;;;4971863;28;20277;-83
2021/06/12 04:03:41;;;;;;;5.40;4.13;;;14.70;99.90;;;;;;4973557;28;20293;-82
2021/06/12 04:06:08;;;;;;;3.73;3.10;;;14.60;99.90;;;;;;4972962;28;20202;-83
2021/06/12 04:08:35;;;;;;;4.57;3.70;;;14.60;99.90;;;;;;4971619;28;20301;-83
2021/06/12 04:11:01;;;;;;;3.70;3.07;;;14.60;99.90;;;;;;4964224;28;20286;-83
2021/06/12 04:13:28;;;;;;;3.70;3.30;;;14.60;99.90;;;;;;4973089;28;20231;-83
2021/06/12 04:15:54;;;;;;;3.87;3.00;;;14.60;99.90;;;;;;4972848;28;20233;-83
2021/06/12 04:18:21;;;;;;;6.47;3.30;;;14.60;99.90;;;;;;4973362;28;20268;-83
2021/06/12 04:20:49;;;;;;;6.23;2.83;;;14.50;99.90;;;;;;4973393;28;20233;-83
2021/06/12 04:23:17;;;;;;;4.77;3.23;;;14.50;99.90;;;;;;4972471;28;20201;-83
2021/06/12 04:25:43;;;;;;;4.73;2.90;;;14.50;99.90;;;;;;4972931;28;20289;-82
2021/06/12 04:28:10;;;;;;;3.03;2.50;;;14.50;99.90;;;;;;4973077;28;20286;-83
2021/06/12 04:30:37;;;;;;;2.70;2.37;;;14.60;99.90;;;;;;4972066;28;20298;-83
2021/06/12 04:33:04;;;;;;;3.20;1.97;;;14.60;99.90;;;;;;4972138;28;20241;-83
2021/06/12 04:35:31;;;;;;;2.70;2.20;;;14.60;99.90;;;;;;4972210;28;20202;-83
2021/06/12 04:38:00;;;;;;;2.30;1.90;;;14.60;99.90;;;;;;4953834;29;20227;-82
2021/06/12 04:40:28;;;;;;;2.70;2.00;;;14.70;99.90;;;;;;4962076;28;20252;-83
2021/06/12 04:42:54;;;;;;;2.30;2.10;;;14.60;99.90;;;;;;4976569;28;20313;-83
2021/06/12 04:45:21;;;;;;;2.73;2.23;;;14.70;99.90;;;;;;4976747;28;20233;-83
2021/06/12 04:47:47;;;;;;;2.30;2.10;;;14.70;99.90;;;;;;4971058;28;20286;-83
2021/06/12 04:50:14;;;;;;;2.93;2.30;;;14.70;99.90;;;;;;4973631;28;20640;-83
2021/06/12 04:52:41;;;;;;;2.70;2.20;;;14.80;99.90;;;;;;4957220;28;20628;-83
2021/06/12 04:55:10;;;;;;;3.03;2.07;;;14.80;99.90;;;;;;4975215;28;20238;-83
2021/06/12 04:57:37;;;;;;;2.90;2.20;;;14.70;99.90;;;;;;4974886;28;20336;-82
2021/06/12 05:00:05;;;;;;;3.67;2.20;;;14.70;99.90;;;;;;4967204;28;20289;-83
2021/06/12 05:02:32;;;;;;;2.07;1.80;;;14.80;99.90;;;;;;4956372;28;20233;-83
2021/06/12 05:04:59;;;;;;;1.97;1.60;;;14.90;99.90;;;;;;4965086;28;20214;-83
2021/06/12 05:07:26;;;;;;;1.80;1.70;;;14.90;99.90;;;;;;4974534;28;20237;-83
2021/06/12 05:09:52;;;;;;;2.00;1.70;;;14.90;99.90;;;;;;4975427;28;20312;-83
2021/06/12 05:12:24;;;;;;;2.07;1.70;;;15.00;99.90;;;;;;4974131;28;20784;-83
2021/06/12 05:14:54;;;;;;;3.43;1.50;;;15.00;99.90;;;;;;4971213;28;20195;-83
2021/06/12 05:17:20;;;;;;;1.40;1.30;;;15.00;99.90;;;;;;4955571;29;20231;-83
2021/06/12 05:19:47;;;;;;;1.73;1.43;;;15.00;99.90;;;;;;4955596;29;20231;-83
2021/06/12 05:22:13;;;;;;;2.50;1.53;;;15.00;99.90;;;;;;4968936;28;20207;-83
2021/06/12 05:24:41;;;;;;;1.57;1.43;;;15.00;99.90;;;;;;4974927;28;20703;-82
2021/06/12 05:27:07;;;;;;;1.70;1.60;;;15.00;99.90;;;;;;4973599;28;20676;-83
2021/06/12 05:29:35;;;;;;;4.37;1.90;;;15.10;99.90;;;;;;4974038;28;20210;-83
2021/06/12 05:32:02;;;;;;;1.57;1.10;;;15.10;99.90;;;;;;4971605;28;20294;-83
2021/06/12 05:34:28;;;;;;;1.27;1.13;;;15.10;99.90;;;;;;4967193;28;20770;-83
2021/06/12 05:36:54;;;;;;;3.30;1.00;;;14.90;99.90;;;;;;4967908;28;20213;-82
2021/06/12 05:39:21;;;;;;;1.03;0.93;;;14.90;99.90;;;;;;4958989;28;20262;-83
2021/06/12 05:41:47;;;;;;;1.10;1.00;;;15.00;99.90;;;;;;4968861;28;20202;-83
2021/06/12 05:44:14;;;;;;;1.10;1.00;;;15.10;99.90;;;;;;4974238;28;20285;-83
2021/06/12 05:46:42;;;;;;;1.63;0.90;;;15.20;99.90;;;;;;4974387;28;20249;-83
2021/06/12 05:49:08;;;;;;;1.00;0.90;;;15.20;99.90;;;;;;4953236;28;191491;-83
2021/06/12 05:51:35;;;;;;;1.30;1.20;;;15.30;99.90;;;;;;4948654;28;20557;-83
2021/06/12 05:54:01;;;;;;;1.10;1.00;;;15.30;99.90;;;;;;4974467;28;20630;-83
2021/06/12 05:56:27;;;;;;;1.00;0.90;;;15.50;99.90;;;;;;4966534;28;20290;-83
2021/06/12 05:58:54;;;;;;;0.80;0.80;;;15.70;99.90;;;;;;4975231;28;20718;-83
2021/06/12 06:01:20;;;;;;;1.10;1.00;;;15.90;99.90;;;;;;4974785;28;20226;-83
2021/06/12 06:03:48;;;;;;;1.20;1.10;;;15.80;99.90;;;;;;4969958;28;20227;-83
2021/06/12 06:06:15;;;;;;;0.97;0.90;;;15.60;99.90;;;;;;4967989;28;20290;-83
2021/06/12 06:08:41;;;;;;;0.73;0.73;;;15.40;99.90;;;;;;4963121;28;20289;-83
2021/06/12 06:11:08;;;;;;;1.00;0.90;;;15.40;99.90;;;;;;4974812;28;20297;-83
2021/06/12 06:13:38;;;;;;;0.90;0.90;;;15.40;99.90;;;;;;4975354;28;20223;-83
2021/06/12 06:16:05;;;;;;;0.90;0.90;;;15.50;99.90;;;;;;4975487;28;20707;-80
2021/06/12 06:18:32;;;;;;;1.60;0.90;;;15.90;99.90;;;;;;4974425;28;20636;-83
2021/06/12 06:21:00;;;;;;;1.27;1.07;;;16.20;99.90;;;;;;4975469;28;20234;-83
2021/06/12 06:23:27;;;;;;;1.30;1.00;;;16.40;99.90;;;;;;4967314;28;20649;-83
2021/06/12 06:25:53;;;;;;;1.27;1.07;;;16.40;99.90;;;;;;4955617;29;20245;-83
2021/06/12 06:28:20;;;;;;;1.40;1.00;;;16.50;99.90;;;;;;4969967;28;20206;-83
2021/06/12 06:30:46;;;;;;;1.20;1.10;;;16.50;99.90;;;;;;4974039;28;20289;-83
2021/06/12 06:33:13;;;;;;;1.23;1.13;;;16.50;99.90;;;;;;4975154;28;20289;-83
2021/06/12 06:35:39;;;;;;;1.20;1.10;;;16.60;99.90;;;;;;4974377;28;20214;-81
2021/06/12 06:38:08;;;;;;;1.10;1.00;;;16.70;99.90;;;;;;4974623;28;20316;-82
2021/06/12 06:40:35;;;;;;;1.07;0.97;;;16.90;99.90;;;;;;4972894;28;20683;-82
2021/06/12 06:43:01;;;;;;;1.30;1.10;;;17.00;99.90;;;;;;4972844;28;20234;-82
2021/06/12 06:45:28;;;;;;;1.43;1.33;;;17.00;99.90;;;;;;4973432;28;20202;-81
2021/06/12 06:47:54;;;;;;;1.50;1.10;;;17.20;99.90;;;;;;4972676;28;20242;-83
2021/06/12 06:50:21;;;;;;;1.10;1.00;;;16.90;99.90;;;;;;4965323;28;20238;-82
2021/06/12 06:52:49;;;;;;;1.20;1.10;;;16.70;99.90;;;;;;4966268;28;20763;-82
2021/06/12 06:55:17;;;;;;;1.50;1.30;;;16.30;99.90;;;;;;4970515;28;20203;-82
2021/06/12 06:57:44;;;;;;;1.40;1.30;;;16.20;99.90;;;;;;4974731;28;20258;-82
2021/06/12 07:00:12;;;;;;;1.60;1.50;;;16.40;99.90;;;;;;4974342;28;20202;-82
2021/06/12 07:02:39;;;;;;;1.57;1.47;;;16.60;99.90;;;;;;4972664;28;20604;-82
2021/06/12 07:05:06;;;;;;;1.77;1.50;;;16.50;99.90;;;;;;4978825;28;20253;-83
2021/06/12 07:07:35;;;;;;;1.40;1.30;;;16.60;99.90;;;;;;4987144;28;20731;-82
2021/06/12 07:10:28;;;;;;;1.20;1.10;;;16.60;99.90;;;;;;4963446;28;20209;-81
2021/06/12 07:13:02;;;;;;;1.10;1.00;;;16.70;99.90;;;;;;4979284;28;20198;-82
2021/06/12 07:16:03;;;;;;;1.10;1.00;;;16.80;99.90;;;;;;4961938;28;20202;-82
2021/06/12 07:18:45;;;;;;;1.27;1.17;;;17.10;99.90;;;;;;4948070;28;20280;-81
2021/06/12 07:23:59;;;;;;;1.47;1.37;;;17.40;99.90;;;;;;4973772;28;20202;-81
2021/06/12 07:27:02;;;;;;;1.63;1.40;;;17.30;99.90;;;;;;4925661;28;20253;-80
2021/06/12 07:29:28;;;;;;;1.77;1.50;;;17.20;99.90;;;;;;4961101;28;20245;-81
2021/06/12 07:32:30;;;;;;;1.87;1.37;;;17.40;99.90;;;;;;4964672;28;20632;-81
2021/06/12 07:35:06;;;;;;;1.60;1.40;;;17.70;99.90;;;;;;4972071;28;20640;-81
2021/06/12 07:37:32;;;;;;;1.50;1.40;;;18.20;99.90;;;;;;4973327;28;20317;-81
2021/06/12 07:39:59;;;;;;;1.60;1.50;;;18.20;99.90;;;;;;4973233;28;20241;-82
2021/06/12 07:42:27;;;;;;;1.90;1.70;;;18.20;99.90;;;;;;4966746;28;20554;-81
2021/06/12 07:44:53;;;;;;;1.60;1.50;;;18.00;99.90;;;;;;4972815;28;20199;-81
2021/06/12 07:47:20;;;;;;;1.80;1.60;;;18.20;99.90;;;;;;4973239;28;20285;-81
2021/06/12 07:49:46;;;;;;;2.80;2.60;;;18.10;99.90;;;;;;4972568;28;20716;-81
2021/06/12 07:52:13;;;;;;;2.17;1.47;;;18.40;99.90;;;;;;4973333;28;20206;-81
2021/06/12 07:54:40;;;;;;;2.30;1.87;;;18.70;99.90;;;;;;4973003;28;20696;-81
2021/06/12 07:57:07;;;;;;;2.63;1.80;;;18.40;99.90;;;;;;4972519;28;20207;-82
2021/06/12 07:59:37;;;;;;;1.90;1.70;;;18.60;99.90;;;;;;4973260;28;20226;-81
2021/06/12 08:02:04;;;;;;;2.30;2.10;;;18.70;99.90;;;;;;4968850;28;20261;-82
2021/06/12 08:04:30;;;;;;;2.17;1.80;;;18.50;99.90;;;;;;4971828;28;20238;-82
2021/06/12 08:06:57;;;;;;;2.10;1.90;;;18.70;99.90;;;;;;4972203;28;20692;-81
2021/06/12 08:09:24;;;;;;;2.10;1.70;;;18.60;99.90;;;;;;4971667;28;20702;-82
2021/06/12 08:12:07;;;;;;;3.47;1.80;;;18.90;99.90;;;;;;4972976;28;20895;-82
2021/06/12 08:14:35;;;;;;;2.40;2.20;;;19.00;99.90;;;;;;4972691;28;20209;-82
2021/06/12 08:17:02;;;;;;;2.47;2.27;;;18.70;99.90;;;;;;4973390;28;20257;-82
2021/06/12 08:19:28;;;;;;;3.25;2.28;;;18.20;99.90;;;;;;4973705;28;20226;-82
2021/06/12 08:22:03;;;;;;;2.47;2.28;;;18.70;99.90;;;;;;4964838;28;20227;-82
2021/06/12 08:24:29;;;;;;;2.50;2.10;;;18.40;99.90;;;;;;4959413;28;21658;-81
2021/06/12 08:26:57;;;;;;;3.17;2.40;;;18.40;99.90;;;;;;4969256;28;20229;-82
2021/06/12 08:29:23;;;;;;;3.10;2.80;;;18.40;99.90;;;;;;4969969;28;20210;-82
2021/06/12 08:31:51;;;;;;;2.40;2.20;;;18.30;99.90;;;;;;4973071;28;20289;-82
2021/06/12 08:34:18;;;;;;;2.73;2.43;;;18.30;99.90;;;;;;4956119;28;20286;-82
2021/06/12 08:36:44;;;;;;;2.63;2.43;;;18.40;99.90;;;;;;4967909;28;20350;-82
2021/06/12 08:39:11;;;;;;;2.10;1.90;;;18.40;99.90;;;;;;4960121;28;20277;-82
2021/06/12 08:41:41;;;;;;;2.28;2.05;;;18.90;99.90;;;;;;4968736;28;20583;-82
2021/06/12 08:44:11;;;;;;;2.20;2.00;;;18.90;99.90;;;;;;4973247;28;20194;-82
2021/06/12 08:46:40;;;;;;;2.90;2.60;;;19.10;99.90;;;;;;4972771;28;20333;-83
2021/06/12 08:49:08;;;;;;;3.25;2.95;;;19.10;99.90;;;;;;4972395;28;20226;-82
2021/06/12 08:51:35;;;;;;;3.60;2.95;;;18.70;99.90;;;;;;4971311;28;20265;-83
2021/06/12 08:54:02;;;;;;;3.05;2.75;;;18.30;99.90;;;;;;4965313;28;20199;-83
2021/06/12 08:56:31;;;;;;;3.00;2.70;;;18.50;99.90;;;;;;4972684;28;20238;-83
2021/06/12 08:58:58;;;;;;;4.35;2.90;;;19.00;99.90;;;;;;4953908;28;20222;-82
2021/06/12 09:01:25;;;;;;;3.35;2.80;;;19.00;99.90;;;;;;4960772;28;20211;-82
2021/06/12 09:03:52;;;;;;;4.78;2.75;;;19.00;99.90;;;;;;4968859;28;20287;-82
2021/06/12 09:06:21;;;;;;;2.70;2.50;;;19.40;99.90;;;;;;4978513;28;20203;-83
2021/06/12 09:08:48;;;;;;;2.72;2.53;;;19.50;99.90;;;;;;4965243;28;20203;-82
2021/06/12 09:11:17;;;;;;;4.20;2.90;;;19.50;99.90;;;;;;4966102;28;20564;-82
2021/06/12 09:13:45;;;;;;;3.42;2.90;;;19.30;99.90;;;;;;4960206;28;20234;-82
2021/06/12 09:16:26;;;;;;;2.85;2.60;;;19.50;99.90;;;;;;4958195;28;20676;-82
2021/06/12 09:18:54;;;;;;;3.10;2.80;;;19.60;99.90;;;;;;4963300;28;20310;-82
2021/06/12 09:21:39;;;;;;;3.22;2.90;;;19.60;99.90;;;;;;4965789;28;20666;-82
2021/06/12 09:24:19;;;;;;;4.15;3.75;;;20.10;99.90;;;;;;4962365;28;20234;-81
2021/06/12 09:26:48;;;;;;;3.83;3.40;;;19.50;99.90;;;;;;4976654;28;20305;-82
2021/06/12 09:29:18;;;;;;;8.27;7.28;;;20.30;99.90;;;;;;4971008;28;20686;-82
2021/06/12 09:31:48;;;;;;;4.30;3.90;;;19.60;99.90;;;;;;4974309;28;20206;-82
2021/06/12 09:34:16;;;;;;;5.57;5.07;;;19.60;99.90;;;;;;4966436;28;20607;-82
2021/06/12 09:36:48;;;;;;;7.78;7.07;;;19.70;99.90;;;;;;4962615;28;20224;-82
2021/06/12 09:39:17;;;;;;;6.05;4.65;;;20.60;99.90;;;;;;4967735;28;20268;-82
2021/06/12 09:41:45;;;;;;;5.05;4.55;;;20.30;99.90;;;;;;4960185;28;20207;-83
2021/06/12 09:44:28;;;;;;;5.82;5.05;;;21.30;99.90;;;;;;4962825;28;20257;-83
2021/06/12 09:46:54;;;;;;;6.57;5.88;;;21.90;99.90;;;;;;4965977;28;20231;-83
2021/06/12 09:49:30;;;;;;;5.28;4.20;;;22.40;99.90;;;;;;4965221;28;20309;-83
2021/06/12 09:52:04;;;;;;;5.13;4.00;;;22.00;99.90;;;;;;4970240;28;20285;-83
2021/06/12 09:54:39;;;;;;;3.38;3.08;;;22.20;99.90;;;;;;4965987;28;20206;-83
2021/06/12 09:57:07;;;;;;;3.33;3.03;;;21.90;99.90;;;;;;4966355;28;20242;-83
2021/06/12 09:59:42;;;;;;;20.83;15.50;;;22.40;99.90;;;;;;4960196;28;20305;-83
2021/06/12 10:02:09;;;;;;;7.30;5.85;;;22.40;99.90;;;;;;4955826;28;20234;-83
2021/06/12 10:04:36;;;;;;;3.83;2.95;;;22.50;99.90;;;;;;4962927;28;20227;-83
2021/06/12 10:07:04;;;;;;;3.35;2.60;;;22.80;99.90;;;;;;4971635;28;20281;-84
2021/06/12 10:09:31;;;;;;;3.17;2.90;;;23.70;99.90;;;;;;4956012;28;20294;-84
2021/06/12 10:11:58;;;;;;;2.38;2.17;;;23.50;99.90;;;;;;4967712;28;20264;-84
2021/06/12 10:14:25;;;;;;;3.00;2.70;;;23.60;99.90;;;;;;4974086;28;20234;-83
2021/06/12 10:16:54;;;;;;;2.90;2.53;;;23.80;99.90;;;;;;4974083;28;20234;-84
2021/06/12 10:19:21;;;;;;;2.92;2.30;;;24.50;99.90;;;;;;4969481;28;20226;-83
2021/06/12 10:21:47;;;;;;;2.50;2.30;;;23.80;99.90;;;;;;4938880;29;20199;-84
2021/06/12 10:24:15;;;;;;;2.38;2.17;;;23.90;99.90;;;;;;4971619;28;20206;-84
2021/06/12 10:26:43;;;;;;;2.83;2.25;;;24.10;99.90;;;;;;4969590;28;20231;-83
2021/06/12 10:29:09;;;;;;;2.67;2.45;;;24.00;99.90;;;;;;4965989;28;20633;-84
2021/06/12 10:31:41;;;;;;;2.83;2.63;;;23.80;99.90;;;;;;4967907;28;20238;-84
2021/06/12 10:34:08;;;;;;;2.60;2.28;;;24.30;99.90;;;;;;4970138;28;20199;-83
2021/06/12 10:36:37;;;;;;;2.90;2.70;;;23.50;99.90;;;;;;4955184;29;20711;-84
2021/06/12 10:39:25;;;;;;;2.53;2.33;;;23.10;99.90;;;;;;4954831;28;20231;-83
2021/06/12 10:42:10;;;;;;;2.88;2.67;;;24.00;99.90;;;;;;4955454;28;20210;-83
2021/06/12 10:44:37;;;;;;;4.15;2.60;;;24.80;99.90;;;;;;4959094;28;20234;-81
2021/06/12 10:47:04;;;;;;;2.58;2.20;;;24.50;99.90;;;;;;4954834;29;20282;-81
2021/06/12 10:49:31;;;;;;;2.00;1.90;;;27.00;99.90;;;;;;4959296;28;20237;-84
2021/06/12 10:51:58;;;;;;;2.88;2.45;;;26.90;99.90;;;;;;4970279;28;20206;-83
2021/06/12 10:54:30;;;;;;;2.15;2.03;;;24.90;99.90;;;;;;4958101;28;20286;-83
2021/06/12 10:56:59;;;;;;;2.50;2.30;;;25.10;99.90;;;;;;4967018;28;20226;-84
2021/06/12 10:59:49;;;;;;;2.38;2.17;;;28.50;99.90;;;;;;4971457;28;20229;-84
2021/06/12 11:02:24;;;;;;;3.08;2.78;;;26.30;99.90;;;;;;4968420;28;20207;-84
2021/06/12 11:04:55;;;;;;;2.40;2.20;;;26.00;99.90;;;;;;4954819;28;20234;-84
2021/06/12 11:07:27;;;;;;;2.80;2.53;;;26.00;99.90;;;;;;4954894;29;20242;-84
2021/06/12 11:10:10;;;;;;;2.40;2.17;;;26.10;99.90;;;;;;4954969;28;20279;-84
2021/06/12 11:12:37;;;;;;;2.95;2.15;;;27.80;99.90;;;;;;4954528;28;20215;-84
2021/06/12 11:15:13;;;;;;;2.40;2.20;;;27.80;99.90;;;;;;4962348;28;20237;-84
2021/06/12 11:17:40;;;;;;;2.40;2.20;;;27.40;99.90;;;;;;4973564;28;20202;-84
2021/06/12 11:20:26;;;;;;;2.33;1.83;;;26.10;99.90;;;;;;4973904;28;20285;-84
2021/06/12 11:22:55;;;;;;;2.08;1.90;;;26.40;99.90;;;;;;4967252;28;20266;-85
2021/06/12 11:25:55;;;;;;;2.20;2.10;;;25.80;99.90;;;;;;4957436;28;20235;-85
2021/06/12 11:28:33;;;;;;;2.17;1.98;;;26.60;99.90;;;;;;4962211;28;20679;-84
2021/06/12 11:31:26;;;;;;;1.80;1.60;;;28.50;99.90;;;;;;4974017;28;20203;-85
2021/06/12 11:34:16;;;;;;;1.70;1.60;;;27.40;99.90;;;;;;4968327;28;20289;-85
2021/06/12 11:36:45;;;;;;;3.45;1.77;;;29.00;99.90;;;;;;4971937;28;20213;-86
2021/06/12 11:39:12;;;;;;;1.83;1.73;;;28.10;99.90;;;;;;4967812;28;20254;-85
2021/06/12 11:41:40;;;;;;;2.35;1.85;;;26.20;99.90;;;;;;4954954;29;20282;-85
2021/06/12 11:44:08;;;;;;;1.67;1.58;;;27.20;99.90;;;;;;4965221;28;20237;-84
2021/06/12 11:46:37;;;;;;;1.85;1.75;;;26.90;99.90;;;;;;4955522;28;20207;-85
2021/06/12 11:49:07;;;;;;;1.75;1.40;;;27.70;99.90;;;;;;4969776;28;20708;-83
2021/06/12 11:51:35;;;;;;;2.13;1.50;;;27.80;99.90;;;;;;4973571;28;20214;-84
2021/06/12 11:54:08;;;;;;;2.10;1.70;;;28.00;99.90;;;;;;4963678;28;20248;-84
2021/06/12 11:56:36;;;;;;;2.08;1.70;;;27.40;99.90;;;;;;4971544;28;20575;-84
2021/06/12 11:59:06;;;;;;;1.50;1.40;;;28.90;99.90;;;;;;4960255;28;20692;-84
2021/06/12 12:01:45;;;;;;;1.73;1.40;;;29.10;99.90;;;;;;4967226;28;20373;-85
2021/06/12 12:04:14;;;;;;;2.97;1.60;;;27.90;99.90;;;;;;4968164;28;20237;-85
2021/06/12 12:06:52;;;;;;;1.90;1.60;;;29.40;99.90;;;;;;4972338;28;20202;-85
2021/06/12 12:09:24;;;;;;;2.28;1.70;;;31.30;99.90;;;;;;4978368;28;20300;-85
2021/06/12 12:11:52;;;;;;;3.03;1.40;;;29.90;99.90;;;;;;4964907;28;20394;-84
2021/06/12 12:14:27;;;;;;;1.40;1.30;;;27.80;99.90;;;;;;4940857;28;21630;-85
2021/06/12 12:16:54;;;;;;;1.50;1.20;;;28.90;99.90;;;;;;4955811;28;20289;-85
2021/06/12 12:19:21;;;;;;;1.60;1.33;;;29.80;99.90;;;;;;4964478;28;20732;-85
2021/06/12 12:21:50;;;;;;;1.52;1.42;;;29.60;99.90;;;;;;4962900;28;20199;-84
2021/06/12 12:24:16;;;;;;;2.10;1.60;;;28.50;99.90;;;;;;4970162;28;20663;-84
2021/06/12 12:26:53;;;;;;;2.03;1.55;;;28.50;99.90;;;;;;4973320;28;20211;-80
2021/06/12 12:29:24;;;;;;;2.13;1.50;;;27.80;99.90;;;;;;4970420;28;20198;-82
2021/06/12 12:31:51;;;;;;;1.48;1.27;;;29.40;99.90;;;;;;4965900;28;20714;-80
2021/06/12 12:34:28;;;;;;;8.02;1.80;;;29.20;99.90;;;;;;4970264;28;20302;-80
2021/06/12 12:36:55;;;;;;;3.53;1.55;;;28.60;99.90;;;;;;4970566;28;20205;-80
2021/06/12 12:39:22;;;;;;;3.28;1.65;;;28.60;99.90;;;;;;4976857;28;20226;-82
2021/06/12 12:41:53;;;;;;;1.50;1.40;;;28.60;99.90;;;;;;4970988;28;20639;-81
2021/06/12 12:44:22;;;;;;;1.35;1.25;;;28.00;99.90;;;;;;4966121;28;20293;-81
2021/06/12 12:46:50;;;;;;;1.52;1.40;;;28.60;99.90;;;;;;4953753;28;20673;-80
2021/06/12 12:49:19;;;;;;;1.63;1.40;;;28.70;99.90;;;;;;4965026;28;20269;-80
2021/06/12 12:52:04;;;;;;;1.50;1.40;;;29.70;99.90;;;;;;4971334;28;20612;-78
2021/06/12 12:54:33;;;;;;;1.98;1.55;;;29.80;99.90;;;;;;4979431;28;20289;-79
2021/06/12 12:57:06;;;;;;;2.35;1.90;;;30.70;99.90;;;;;;4972338;28;20213;-81
2021/06/12 12:59:36;;;;;;;1.80;1.70;;;31.10;99.90;;;;;;4971121;28;20254;-79
2021/06/12 13:02:07;;;;;;;1.55;1.45;;;30.50;99.90;;;;;;4966066;28;20203;-80